sensor_id;sensor_type;location;lat;lon;timestamp;pressure;altitude;pressure_sealevel;temperature;humidity
7768;BME280;3928;42.626;23.382;2023-08-12T00:00:45;94748.00;;;21.07;66.36
7768;BME280;3928;42.626;23.382;2023-08-12T00:03:12;94743.38;;;20.96;66.58
7768;BME280;3928;42.626;23.382;2023-08-12T00:05:38;94740.28;;;21.06;66.20
7768;BME280;3928;42.626;23.382;2023-08-12T00:08:05;94740.81;;;21.12;65.81
7768;BME280;3928;42.626;23.382;2023-08-12T00:10:32;94734.59;;;21.15;65.31
7768;BME280;3928;42.626;23.382;2023-08-12T00:13:00;94735.50;;;21.14;65.56
7768;BME280;3928;42.626;23.382;2023-08-12T00:15:27;94735.28;;;21.18;65.14
7768;BME280;3928;42.626;23.382;2023-08-12T00:17:54;94734.66;;;21.13;65.13
7768;BME280;3928;42.626;23.382;2023-08-12T00:20:21;94729.47;;;21.13;64.84
7768;BME280;3928;42.626;23.382;2023-08-12T00:22:47;94731.22;;;21.13;65.24
7768;BME280;3928;42.626;23.382;2023-08-12T00:25:14;94718.13;;;20.97;65.19
7768;BME280;3928;42.626;23.382;2023-08-12T00:27:41;94734.44;;;21.18;64.96
7768;BME280;3928;42.626;23.382;2023-08-12T00:30:10;94733.81;;;21.13;65.18
7768;BME280;3928;42.626;23.382;2023-08-12T00:32:37;94730.63;;;21.08;65.54
7768;BME280;3928;42.626;23.382;2023-08-12T00:35:04;94734.13;;;21.07;65.48
7768;BME280;3928;42.626;23.382;2023-08-12T00:37:31;94736.59;;;21.10;65.36
7768;BME280;3928;42.626;23.382;2023-08-12T00:39:58;94732.31;;;21.09;65.63
7768;BME280;3928;42.626;23.382;2023-08-12T00:42:25;94731.97;;;21.15;66.64
7768;BME280;3928;42.626;23.382;2023-08-12T00:44:51;94733.50;;;21.19;65.88
7768;BME280;3928;42.626;23.382;2023-08-12T00:47:21;94714.03;;;21.09;66.22
7768;BME280;3928;42.626;23.382;2023-08-12T00:49:48;94734.28;;;21.21;67.19
7768;BME280;3928;42.626;23.382;2023-08-12T00:52:15;94738.44;;;21.25;67.34
7768;BME280;3928;42.626;23.382;2023-08-12T00:54:43;94731.38;;;21.27;67.08
7768;BME280;3928;42.626;23.382;2023-08-12T00:57:10;94722.94;;;21.22;66.89
7768;BME280;3928;42.626;23.382;2023-08-12T00:59:39;94718.34;;;21.27;66.79
7768;BME280;3928;42.626;23.382;2023-08-12T01:02:08;94706.97;;;21.28;66.22
7768;BME280;3928;42.626;23.382;2023-08-12T01:04:36;94718.78;;;21.35;66.43
7768;BME280;3928;42.626;23.382;2023-08-12T01:07:03;94714.78;;;21.28;66.65
7768;BME280;3928;42.626;23.382;2023-08-12T01:09:30;94712.03;;;21.31;66.55
7768;BME280;3928;42.626;23.382;2023-08-12T01:12:01;94713.88;;;21.29;66.60
7768;BME280;3928;42.626;23.382;2023-08-12T01:14:37;94708.94;;;21.23;66.84
7768;BME280;3928;42.626;23.382;2023-08-12T01:17:06;94719.56;;;21.20;67.09
7768;BME280;3928;42.626;23.382;2023-08-12T01:19:38;94711.66;;;21.21;66.91
7768;BME280;3928;42.626;23.382;2023-08-12T01:22:08;94710.00;;;21.19;66.81
7768;BME280;3928;42.626;23.382;2023-08-12T01:24:37;94701.66;;;21.12;66.88
7768;BME280;3928;42.626;23.382;2023-08-12T01:27:06;94684.19;;;20.97;67.24
7768;BME280;3928;42.626;23.382;2023-08-12T01:29:33;94710.94;;;21.18;66.68
7768;BME280;3928;42.626;23.382;2023-08-12T01:32:07;94718.00;;;21.16;67.02
7768;BME280;3928;42.626;23.382;2023-08-12T01:34:40;94716.16;;;21.18;66.25
7768;BME280;3928;42.626;23.382;2023-08-12T01:37:11;94709.13;;;21.20;66.28
7768;BME280;3928;42.626;23.382;2023-08-12T01:39:43;94704.19;;;21.14;66.66
7768;BME280;3928;42.626;23.382;2023-08-12T01:42:12;94702.50;;;21.13;66.66
7768;BME280;3928;42.626;23.382;2023-08-12T01:44:39;94705.88;;;21.15;66.34
7768;BME280;3928;42.626;23.382;2023-08-12T01:47:08;94708.81;;;21.09;66.33
7768;BME280;3928;42.626;23.382;2023-08-12T01:49:34;94710.59;;;21.08;66.48
7768;BME280;3928;42.626;23.382;2023-08-12T01:52:01;94710.59;;;21.08;66.42
7768;BME280;3928;42.626;23.382;2023-08-12T01:54:28;94719.31;;;21.07;66.42
7768;BME280;3928;42.626;23.382;2023-08-12T01:57:00;94710.81;;;21.03;66.34
7768;BME280;3928;42.626;23.382;2023-08-12T01:59:27;94717.72;;;21.05;66.63
7768;BME280;3928;42.626;23.382;2023-08-12T02:01:54;94710.03;;;21.01;66.80
7768;BME280;3928;42.626;23.382;2023-08-12T02:04:21;94706.84;;;20.96;67.92
7768;BME280;3928;42.626;23.382;2023-08-12T02:06:47;94712.94;;;20.95;67.71
7768;BME280;3928;42.626;23.382;2023-08-12T02:09:15;94707.88;;;20.92;67.44
7768;BME280;3928;42.626;23.382;2023-08-12T02:11:42;94711.44;;;20.91;67.28
7768;BME280;3928;42.626;23.382;2023-08-12T02:14:10;94710.66;;;20.89;67.27
7768;BME280;3928;42.626;23.382;2023-08-12T02:16:37;94704.84;;;20.84;67.40
7768;BME280;3928;42.626;23.382;2023-08-12T02:19:04;94704.97;;;20.81;67.40
7768;BME280;3928;42.626;23.382;2023-08-12T02:21:30;94707.75;;;20.78;67.57
7768;BME280;3928;42.626;23.382;2023-08-12T02:23:57;94710.50;;;20.75;67.14
7768;BME280;3928;42.626;23.382;2023-08-12T02:26:24;94712.50;;;20.70;67.82
7768;BME280;3928;42.626;23.382;2023-08-12T02:28:51;94711.88;;;20.65;67.10
7768;BME280;3928;42.626;23.382;2023-08-12T02:31:19;94718.94;;;20.63;66.66
7768;BME280;3928;42.626;23.382;2023-08-12T02:33:46;94724.16;;;20.63;66.74
7768;BME280;3928;42.626;23.382;2023-08-12T02:36:14;94723.31;;;20.62;67.03
7768;BME280;3928;42.626;23.382;2023-08-12T02:38:41;94723.84;;;20.52;66.85
7768;BME280;3928;42.626;23.382;2023-08-12T02:41:08;94725.16;;;20.41;66.47
7768;BME280;3928;42.626;23.382;2023-08-12T02:43:35;94724.28;;;20.42;66.95
7768;BME280;3928;42.626;23.382;2023-08-12T02:46:02;94732.09;;;20.42;67.67
7768;BME280;3928;42.626;23.382;2023-08-12T02:48:30;94726.88;;;20.42;67.39
7768;BME280;3928;42.626;23.382;2023-08-12T02:50:57;94729.69;;;20.38;67.96
7768;BME280;3928;42.626;23.382;2023-08-12T02:53:23;94733.34;;;20.34;67.22
7768;BME280;3928;42.626;23.382;2023-08-12T02:55:50;94737.88;;;20.30;66.77
7768;BME280;3928;42.626;23.382;2023-08-12T02:58:17;94729.56;;;20.22;66.69
7768;BME280;3928;42.626;23.382;2023-08-12T03:00:44;94731.63;;;20.15;67.47
7768;BME280;3928;42.626;23.382;2023-08-12T03:03:11;94731.97;;;20.08;67.12
7768;BME280;3928;42.626;23.382;2023-08-12T03:05:39;94728.59;;;20.06;67.07
7768;BME280;3928;42.626;23.382;2023-08-12T03:08:06;94737.34;;;20.05;66.77
7768;BME280;3928;42.626;23.382;2023-08-12T03:10:33;94732.28;;;20.02;67.37
7768;BME280;3928;42.626;23.382;2023-08-12T03:13:00;94729.16;;;19.94;67.29
7768;BME280;3928;42.626;23.382;2023-08-12T03:15:27;94723.09;;;19.74;67.11
7768;BME280;3928;42.626;23.382;2023-08-12T03:17:55;94733.25;;;19.80;67.30
7768;BME280;3928;42.626;23.382;2023-08-12T03:20:22;94734.25;;;19.78;67.80
7768;BME280;3928;42.626;23.382;2023-08-12T03:22:50;94739.09;;;19.85;67.99
7768;BME280;3928;42.626;23.382;2023-08-12T03:25:17;94736.47;;;19.85;68.82
7768;BME280;3928;42.626;23.382;2023-08-12T03:27:44;94713.44;;;19.76;68.54
7768;BME280;3928;42.626;23.382;2023-08-12T03:30:12;94736.34;;;19.89;68.20
7768;BME280;3928;42.626;23.382;2023-08-12T03:32:38;94732.84;;;19.90;67.68
7768;BME280;3928;42.626;23.382;2023-08-12T03:35:05;94739.84;;;19.88;67.38
7768;BME280;3928;42.626;23.382;2023-08-12T03:37:32;94725.59;;;19.77;68.13
7768;BME280;3928;42.626;23.382;2023-08-12T03:40:01;94742.91;;;19.78;67.79
7768;BME280;3928;42.626;23.382;2023-08-12T03:42:28;94738.72;;;19.74;67.85
7768;BME280;3928;42.626;23.382;2023-08-12T03:44:55;94742.41;;;19.70;68.04
7768;BME280;3928;42.626;23.382;2023-08-12T03:47:21;94744.22;;;19.68;68.40
7768;BME280;3928;42.626;23.382;2023-08-12T03:49:49;94738.59;;;19.59;68.75
7768;BME280;3928;42.626;23.382;2023-08-12T03:52:16;94734.66;;;19.48;68.91
7768;BME280;3928;42.626;23.382;2023-08-12T03:54:43;94756.88;;;19.57;69.23
7768;BME280;3928;42.626;23.382;2023-08-12T03:57:11;94750.75;;;19.58;69.80
7768;BME280;3928;42.626;23.382;2023-08-12T03:59:38;94714.31;;;19.38;69.25
7768;BME280;3928;42.626;23.382;2023-08-12T04:02:05;94750.81;;;19.56;69.50
7768;BME280;3928;42.626;23.382;2023-08-12T04:04:32;94725.75;;;19.54;69.87
7768;BME280;3928;42.626;23.382;2023-08-12T04:06:59;94741.63;;;19.68;69.62
7768;BME280;3928;42.626;23.382;2023-08-12T04:09:26;94743.94;;;19.74;69.33
7768;BME280;3928;42.626;23.382;2023-08-12T04:11:53;94742.81;;;19.80;69.50
7768;BME280;3928;42.626;23.382;2023-08-12T04:14:21;94738.31;;;19.83;69.08
7768;BME280;3928;42.626;23.382;2023-08-12T04:16:48;94746.41;;;19.96;69.08
7768;BME280;3928;42.626;23.382;2023-08-12T04:19:15;94742.53;;;20.05;68.80
7768;BME280;3928;42.626;23.382;2023-08-12T04:21:41;94739.88;;;20.06;69.02
7768;BME280;3928;42.626;23.382;2023-08-12T04:24:11;94753.16;;;20.19;68.95
7768;BME280;3928;42.626;23.382;2023-08-12T04:26:38;94751.97;;;20.26;68.58
7768;BME280;3928;42.626;23.382;2023-08-12T04:29:05;94748.13;;;20.33;68.50
7768;BME280;3928;42.626;23.382;2023-08-12T04:31:33;94747.78;;;20.41;68.31
7768;BME280;3928;42.626;23.382;2023-08-12T04:34:00;94754.50;;;20.47;68.00
7768;BME280;3928;42.626;23.382;2023-08-12T04:36:27;94754.13;;;20.54;68.25
7768;BME280;3928;42.626;23.382;2023-08-12T04:38:54;94725.97;;;20.43;67.93
7768;BME280;3928;42.626;23.382;2023-08-12T04:41:20;94751.00;;;20.65;67.63
7768;BME280;3928;42.626;23.382;2023-08-12T04:43:49;94755.00;;;20.72;67.62
7768;BME280;3928;42.626;23.382;2023-08-12T04:46:16;94753.78;;;20.79;67.07
7768;BME280;3928;42.626;23.382;2023-08-12T04:48:44;94757.91;;;20.83;67.41
7768;BME280;3928;42.626;23.382;2023-08-12T04:51:12;94749.56;;;20.94;67.32
7768;BME280;3928;42.626;23.382;2023-08-12T04:53:39;94745.81;;;20.99;66.66
7768;BME280;3928;42.626;23.382;2023-08-12T04:56:06;94750.72;;;21.06;66.11
7768;BME280;3928;42.626;23.382;2023-08-12T04:58:34;94745.78;;;21.17;66.20
7768;BME280;3928;42.626;23.382;2023-08-12T05:01:01;94757.31;;;21.30;66.55
7768;BME280;3928;42.626;23.382;2023-08-12T05:03:28;94754.16;;;21.41;65.67
7768;BME280;3928;42.626;23.382;2023-08-12T05:05:56;94753.50;;;21.37;64.66
7768;BME280;3928;42.626;23.382;2023-08-12T05:08:23;94762.09;;;21.39;64.95
7768;BME280;3928;42.626;23.382;2023-08-12T05:10:50;94758.53;;;21.40;64.54
7768;BME280;3928;42.626;23.382;2023-08-12T05:13:17;94758.06;;;21.49;64.68
7768;BME280;3928;42.626;23.382;2023-08-12T05:15:45;94760.06;;;21.62;64.51
7768;BME280;3928;42.626;23.382;2023-08-12T05:18:13;94756.63;;;21.77;63.75
7768;BME280;3928;42.626;23.382;2023-08-12T05:20:40;94756.22;;;21.84;63.35
7768;BME280;3928;42.626;23.382;2023-08-12T05:23:09;94757.78;;;22.04;62.37
7768;BME280;3928;42.626;23.382;2023-08-12T05:25:38;94757.22;;;22.15;61.63
7768;BME280;3928;42.626;23.382;2023-08-12T05:28:06;94758.06;;;22.31;61.64
7768;BME280;3928;42.626;23.382;2023-08-12T05:30:33;94760.59;;;22.33;60.04
7768;BME280;3928;42.626;23.382;2023-08-12T05:33:00;94762.53;;;22.45;59.32
7768;BME280;3928;42.626;23.382;2023-08-12T05:35:27;94767.19;;;22.40;57.67
7768;BME280;3928;42.626;23.382;2023-08-12T05:37:54;94767.44;;;22.51;58.40
7768;BME280;3928;42.626;23.382;2023-08-12T05:40:22;94767.34;;;22.53;56.64
7768;BME280;3928;42.626;23.382;2023-08-12T05:42:49;94771.72;;;22.52;55.56
7768;BME280;3928;42.626;23.382;2023-08-12T05:45:16;94776.91;;;22.38;55.92
7768;BME280;3928;42.626;23.382;2023-08-12T05:47:43;94770.72;;;22.39;57.25
7768;BME280;3928;42.626;23.382;2023-08-12T05:50:09;94769.44;;;22.46;57.59
7768;BME280;3928;42.626;23.382;2023-08-12T05:52:36;94766.91;;;22.60;56.64
7768;BME280;3928;42.626;23.382;2023-08-12T05:55:04;94753.97;;;22.73;55.88
7768;BME280;3928;42.626;23.382;2023-08-12T05:57:32;94763.53;;;22.74;53.08
7768;BME280;3928;42.626;23.382;2023-08-12T05:59:59;94751.88;;;22.48;53.36
7768;BME280;3928;42.626;23.382;2023-08-12T06:02:26;94759.03;;;22.60;54.21
7768;BME280;3928;42.626;23.382;2023-08-12T06:04:53;94757.81;;;22.52;54.25
7768;BME280;3928;42.626;23.382;2023-08-12T06:07:19;94753.31;;;22.69;54.41
7768;BME280;3928;42.626;23.382;2023-08-12T06:09:46;94748.75;;;22.89;54.20
7768;BME280;3928;42.626;23.382;2023-08-12T06:12:13;94753.09;;;23.04;53.29
7768;BME280;3928;42.626;23.382;2023-08-12T06:14:41;94752.56;;;23.13;53.04
7768;BME280;3928;42.626;23.382;2023-08-12T06:17:08;94748.72;;;22.73;51.43
7768;BME280;3928;42.626;23.382;2023-08-12T06:19:35;94712.09;;;22.73;51.78
7768;BME280;3928;42.626;23.382;2023-08-12T06:22:01;94744.88;;;23.10;51.18
7768;BME280;3928;42.626;23.382;2023-08-12T06:24:28;94752.19;;;23.19;51.16
7768;BME280;3928;42.626;23.382;2023-08-12T06:26:55;94714.47;;;22.77;51.14
7768;BME280;3928;42.626;23.382;2023-08-12T06:29:22;94752.47;;;23.15;51.50
7768;BME280;3928;42.626;23.382;2023-08-12T06:31:50;94737.28;;;23.36;51.94
7768;BME280;3928;42.626;23.382;2023-08-12T06:34:17;94744.00;;;23.54;51.30
7768;BME280;3928;42.626;23.382;2023-08-12T06:36:43;94733.09;;;23.61;49.47
7768;BME280;3928;42.626;23.382;2023-08-12T06:39:10;94733.41;;;23.71;49.73
7768;BME280;3928;42.626;23.382;2023-08-12T06:41:37;94735.63;;;23.63;49.39
7768;BME280;3928;42.626;23.382;2023-08-12T06:44:04;94736.75;;;23.59;49.77
7768;BME280;3928;42.626;23.382;2023-08-12T06:46:31;94736.38;;;23.65;49.57
7768;BME280;3928;42.626;23.382;2023-08-12T06:48:59;94730.06;;;23.53;48.97
7768;BME280;3928;42.626;23.382;2023-08-12T06:51:26;94731.22;;;23.78;49.86
7768;BME280;3928;42.626;23.382;2023-08-12T06:53:53;94715.22;;;23.97;48.83
7768;BME280;3928;42.626;23.382;2023-08-12T06:56:20;94725.47;;;24.28;49.33
7768;BME280;3928;42.626;23.382;2023-08-12T06:58:46;94728.34;;;24.52;47.65
7768;BME280;3928;42.626;23.382;2023-08-12T07:01:13;94722.19;;;24.66;47.19
7768;BME280;3928;42.626;23.382;2023-08-12T07:03:40;94730.97;;;24.92;47.00
7768;BME280;3928;42.626;23.382;2023-08-12T07:06:08;94729.06;;;25.21;46.83
7768;BME280;3928;42.626;23.382;2023-08-12T07:08:35;94724.75;;;25.32;45.83
7768;BME280;3928;42.626;23.382;2023-08-12T07:11:02;94715.22;;;25.44;45.83
7768;BME280;3928;42.626;23.382;2023-08-12T07:13:29;94723.03;;;25.71;45.69
7768;BME280;3928;42.626;23.382;2023-08-12T07:15:56;94725.34;;;25.76;45.30
7768;BME280;3928;42.626;23.382;2023-08-12T07:18:23;94714.06;;;25.86;44.95
7768;BME280;3928;42.626;23.382;2023-08-12T07:20:50;94713.72;;;26.04;43.62
7768;BME280;3928;42.626;23.382;2023-08-12T07:23:18;94725.25;;;26.27;42.22
7768;BME280;3928;42.626;23.382;2023-08-12T07:25:46;94722.53;;;26.15;42.85
7768;BME280;3928;42.626;23.382;2023-08-12T07:28:13;94727.44;;;25.96;42.72
7768;BME280;3928;42.626;23.382;2023-08-12T07:30:40;94725.38;;;26.12;42.21
7768;BME280;3928;42.626;23.382;2023-08-12T07:33:07;94723.25;;;26.43;43.48
7768;BME280;3928;42.626;23.382;2023-08-12T07:35:34;94718.41;;;26.61;42.46
7768;BME280;3928;42.626;23.382;2023-08-12T07:38:00;94712.91;;;26.64;41.28
7768;BME280;3928;42.626;23.382;2023-08-12T07:40:29;94725.94;;;26.78;41.27
7768;BME280;3928;42.626;23.382;2023-08-12T07:42:55;94712.59;;;26.92;41.07
7768;BME280;3928;42.626;23.382;2023-08-12T07:45:22;94719.97;;;26.87;41.25
7768;BME280;3928;42.626;23.382;2023-08-12T07:47:49;94702.06;;;26.92;42.52
7768;BME280;3928;42.626;23.382;2023-08-12T07:50:16;94713.78;;;27.12;41.60
7768;BME280;3928;42.626;23.382;2023-08-12T07:52:43;94711.66;;;27.28;41.19
7768;BME280;3928;42.626;23.382;2023-08-12T07:55:10;94702.34;;;27.47;40.85
7768;BME280;3928;42.626;23.382;2023-08-12T07:57:39;94701.44;;;27.70;41.36
7768;BME280;3928;42.626;23.382;2023-08-12T08:00:07;94682.75;;;27.73;40.02
7768;BME280;3928;42.626;23.382;2023-08-12T08:02:35;94709.59;;;28.12;39.61
7768;BME280;3928;42.626;23.382;2023-08-12T08:05:02;94709.84;;;28.31;38.49
7768;BME280;3928;42.626;23.382;2023-08-12T08:07:29;94702.00;;;28.52;38.30
7768;BME280;3928;42.626;23.382;2023-08-12T08:09:56;94687.81;;;28.53;37.32
7768;BME280;3928;42.626;23.382;2023-08-12T08:12:23;94700.09;;;28.54;35.73
7768;BME280;3928;42.626;23.382;2023-08-12T08:14:51;94697.47;;;28.75;35.52
7768;BME280;3928;42.626;23.382;2023-08-12T08:17:18;94701.03;;;28.96;37.05
7768;BME280;3928;42.626;23.382;2023-08-12T08:19:44;94701.91;;;29.18;35.84
7768;BME280;3928;42.626;23.382;2023-08-12T08:22:11;94697.00;;;29.34;35.48
7768;BME280;3928;42.626;23.382;2023-08-12T08:24:38;94694.25;;;29.56;35.68
7768;BME280;3928;42.626;23.382;2023-08-12T08:27:05;94692.97;;;29.81;36.08
7768;BME280;3928;42.626;23.382;2023-08-12T08:29:32;94674.59;;;29.80;34.43
7768;BME280;3928;42.626;23.382;2023-08-12T08:32:00;94700.34;;;29.78;34.52
7768;BME280;3928;42.626;23.382;2023-08-12T08:34:27;94684.28;;;29.69;35.04
7768;BME280;3928;42.626;23.382;2023-08-12T08:36:54;94677.72;;;29.43;33.19
7768;BME280;3928;42.626;23.382;2023-08-12T08:39:21;94687.97;;;29.57;33.35
7768;BME280;3928;42.626;23.382;2023-08-12T08:41:48;94683.31;;;29.70;34.95
7768;BME280;3928;42.626;23.382;2023-08-12T08:44:15;94692.59;;;29.86;33.35
7768;BME280;3928;42.626;23.382;2023-08-12T08:46:45;94685.25;;;29.99;33.43
7768;BME280;3928;42.626;23.382;2023-08-12T08:49:14;94683.66;;;30.17;32.94
7768;BME280;3928;42.626;23.382;2023-08-12T08:51:42;94681.50;;;30.42;32.27
7768;BME280;3928;42.626;23.382;2023-08-12T08:54:09;94676.53;;;30.58;31.23
7768;BME280;3928;42.626;23.382;2023-08-12T08:56:38;94642.50;;;30.44;31.65
7768;BME280;3928;42.626;23.382;2023-08-12T08:59:05;94675.19;;;30.73;31.97
7768;BME280;3928;42.626;23.382;2023-08-12T09:01:32;94675.75;;;30.87;32.36
7768;BME280;3928;42.626;23.382;2023-08-12T09:03:59;94664.72;;;31.01;31.61
7768;BME280;3928;42.626;23.382;2023-08-12T09:06:28;94662.06;;;31.10;30.24
7768;BME280;3928;42.626;23.382;2023-08-12T09:08:56;94660.22;;;31.11;31.01
7768;BME280;3928;42.626;23.382;2023-08-12T09:11:23;94669.59;;;31.25;31.56
7768;BME280;3928;42.626;23.382;2023-08-12T09:13:50;94665.72;;;31.29;31.40
7768;BME280;3928;42.626;23.382;2023-08-12T09:16:17;94651.03;;;31.34;30.34
7768;BME280;3928;42.626;23.382;2023-08-12T09:18:44;94670.69;;;31.51;30.87
7768;BME280;3928;42.626;23.382;2023-08-12T09:21:11;94660.16;;;31.69;30.71
7768;BME280;3928;42.626;23.382;2023-08-12T09:23:40;94664.84;;;31.94;30.90
7768;BME280;3928;42.626;23.382;2023-08-12T09:26:13;94654.81;;;32.16;29.89
7768;BME280;3928;42.626;23.382;2023-08-12T09:28:40;94653.63;;;32.28;29.39
7768;BME280;3928;42.626;23.382;2023-08-12T09:31:07;94659.06;;;32.36;30.19
7768;BME280;3928;42.626;23.382;2023-08-12T09:33:38;94644.91;;;32.45;29.38
7768;BME280;3928;42.626;23.382;2023-08-12T09:36:05;94650.56;;;32.33;29.69
7768;BME280;3928;42.626;23.382;2023-08-12T09:38:32;94641.78;;;32.22;28.30
7768;BME280;3928;42.626;23.382;2023-08-12T09:41:00;94638.94;;;32.06;28.61
7768;BME280;3928;42.626;23.382;2023-08-12T09:43:28;94637.69;;;32.28;30.31
7768;BME280;3928;42.626;23.382;2023-08-12T09:45:56;94619.41;;;32.25;30.16
7768;BME280;3928;42.626;23.382;2023-08-12T09:48:23;94643.50;;;32.41;28.57
7768;BME280;3928;42.626;23.382;2023-08-12T09:50:49;94617.31;;;32.19;28.31
7768;BME280;3928;42.626;23.382;2023-08-12T09:53:16;94622.47;;;32.30;28.78
7768;BME280;3928;42.626;23.382;2023-08-12T09:55:43;94629.47;;;32.67;29.44
7768;BME280;3928;42.626;23.382;2023-08-12T09:58:17;94602.94;;;32.84;29.31
7768;BME280;3928;42.626;23.382;2023-08-12T10:00:45;94615.34;;;33.20;29.27
7768;BME280;3928;42.626;23.382;2023-08-12T10:03:13;94618.22;;;33.44;28.87
7768;BME280;3928;42.626;23.382;2023-08-12T10:05:44;94623.06;;;33.31;28.99
7768;BME280;3928;42.626;23.382;2023-08-12T10:08:13;94620.03;;;33.43;28.55
7768;BME280;3928;42.626;23.382;2023-08-12T10:10:41;94617.53;;;33.42;28.14
7768;BME280;3928;42.626;23.382;2023-08-12T10:13:09;94618.25;;;33.52;28.07
7768;BME280;3928;42.626;23.382;2023-08-12T10:15:38;94611.94;;;33.53;27.67
7768;BME280;3928;42.626;23.382;2023-08-12T10:18:05;94621.84;;;33.69;28.80
7768;BME280;3928;42.626;23.382;2023-08-12T10:20:33;94612.41;;;33.75;28.67
7768;BME280;3928;42.626;23.382;2023-08-12T10:23:02;94602.84;;;33.90;26.84
7768;BME280;3928;42.626;23.382;2023-08-12T10:25:32;94611.72;;;33.98;26.97
7768;BME280;3928;42.626;23.382;2023-08-12T10:28:00;94607.94;;;34.17;26.74
7768;BME280;3928;42.626;23.382;2023-08-12T10:30:28;94604.25;;;34.10;25.48
7768;BME280;3928;42.626;23.382;2023-08-12T10:32:58;94606.72;;;33.26;25.91
7768;BME280;3928;42.626;23.382;2023-08-12T10:35:40;94601.69;;;32.79;26.71
7768;BME280;3928;42.626;23.382;2023-08-12T10:38:07;94603.53;;;32.61;27.79
7768;BME280;3928;42.626;23.382;2023-08-12T10:40:34;94597.91;;;32.18;27.77
7768;BME280;3928;42.626;23.382;2023-08-12T10:43:01;94590.44;;;32.32;27.63
7768;BME280;3928;42.626;23.382;2023-08-12T10:45:41;94579.72;;;32.77;28.38
7768;BME280;3928;42.626;23.382;2023-08-12T10:48:18;94585.00;;;33.30;28.59
7768;BME280;3928;42.626;23.382;2023-08-12T10:50:48;94581.47;;;33.82;27.41
7768;BME280;3928;42.626;23.382;2023-08-12T10:53:26;94578.28;;;34.20;25.34
7768;BME280;3928;42.626;23.382;2023-08-12T10:55:57;94571.91;;;34.47;26.57
7768;BME280;3928;42.626;23.382;2023-08-12T10:58:27;94577.41;;;34.54;24.60
7768;BME280;3928;42.626;23.382;2023-08-12T11:00:54;94566.34;;;34.24;25.23
7768;BME280;3928;42.626;23.382;2023-08-12T11:03:23;94574.81;;;33.78;25.67
7768;BME280;3928;42.626;23.382;2023-08-12T11:05:50;94567.09;;;33.66;25.43
7768;BME280;3928;42.626;23.382;2023-08-12T11:08:24;94562.16;;;33.80;26.48
7768;BME280;3928;42.626;23.382;2023-08-12T11:10:54;94546.63;;;34.09;26.29
7768;BME280;3928;42.626;23.382;2023-08-12T11:13:21;94555.06;;;34.39;26.05
7768;BME280;3928;42.626;23.382;2023-08-12T11:15:48;94553.25;;;34.64;25.92
7768;BME280;3928;42.626;23.382;2023-08-12T11:18:17;94540.25;;;34.61;25.17
7768;BME280;3928;42.626;23.382;2023-08-12T11:20:47;94548.78;;;35.05;26.36
7768;BME280;3928;42.626;23.382;2023-08-12T11:23:14;94538.41;;;35.26;25.48
7768;BME280;3928;42.626;23.382;2023-08-12T11:25:43;94565.06;;;35.51;24.94
7768;BME280;3928;42.626;23.382;2023-08-12T11:28:10;94562.38;;;35.59;25.51
7768;BME280;3928;42.626;23.382;2023-08-12T11:30:40;94539.72;;;35.55;25.06
7768;BME280;3928;42.626;23.382;2023-08-12T11:33:09;94543.31;;;35.70;24.48
7768;BME280;3928;42.626;23.382;2023-08-12T11:35:36;94549.97;;;35.74;24.24
7768;BME280;3928;42.626;23.382;2023-08-12T11:38:06;94550.25;;;35.95;24.72
7768;BME280;3928;42.626;23.382;2023-08-12T11:40:33;94545.16;;;36.09;23.80
7768;BME280;3928;42.626;23.382;2023-08-12T11:43:03;94553.44;;;36.22;22.75
7768;BME280;3928;42.626;23.382;2023-08-12T11:45:30;94548.44;;;36.19;23.33
7768;BME280;3928;42.626;23.382;2023-08-12T11:47:57;94541.38;;;36.34;22.46
7768;BME280;3928;42.626;23.382;2023-08-12T11:50:25;94547.03;;;36.31;22.60
7768;BME280;3928;42.626;23.382;2023-08-12T11:52:54;94544.56;;;36.29;22.19
7768;BME280;3928;42.626;23.382;2023-08-12T11:55:23;94551.09;;;36.35;22.13
7768;BME280;3928;42.626;23.382;2023-08-12T11:57:51;94546.50;;;36.44;21.93
7768;BME280;3928;42.626;23.382;2023-08-12T12:00:18;94533.25;;;36.50;22.25
7768;BME280;3928;42.626;23.382;2023-08-12T12:02:49;94516.91;;;36.45;22.71
7768;BME280;3928;42.626;23.382;2023-08-12T12:05:16;94535.00;;;36.81;22.96
7768;BME280;3928;42.626;23.382;2023-08-12T12:07:44;94537.50;;;37.05;22.50
7768;BME280;3928;42.626;23.382;2023-08-12T12:10:13;94542.31;;;37.10;20.84
7768;BME280;3928;42.626;23.382;2023-08-12T12:12:44;94536.63;;;36.90;20.39
7768;BME280;3928;42.626;23.382;2023-08-12T12:15:12;94537.22;;;36.54;21.56
7768;BME280;3928;42.626;23.382;2023-08-12T12:17:40;94537.97;;;36.48;21.12
7768;BME280;3928;42.626;23.382;2023-08-12T12:20:08;94531.59;;;36.72;21.64
7768;BME280;3928;42.626;23.382;2023-08-12T12:22:37;94516.38;;;36.96;21.17
7768;BME280;3928;42.626;23.382;2023-08-12T12:25:07;94527.94;;;37.26;21.46
7768;BME280;3928;42.626;23.382;2023-08-12T12:27:34;94519.03;;;37.48;21.20
7768;BME280;3928;42.626;23.382;2023-08-12T12:30:02;94505.97;;;37.15;19.16
7768;BME280;3928;42.626;23.382;2023-08-12T12:32:29;94520.78;;;37.03;21.48
7768;BME280;3928;42.626;23.382;2023-08-12T12:34:56;94522.31;;;37.21;21.69
7768;BME280;3928;42.626;23.382;2023-08-12T12:37:23;94507.53;;;37.25;20.06
7768;BME280;3928;42.626;23.382;2023-08-12T12:39:49;94506.06;;;37.07;21.42
7768;BME280;3928;42.626;23.382;2023-08-12T12:42:16;94510.19;;;36.72;19.69
7768;BME280;3928;42.626;23.382;2023-08-12T12:44:43;94499.84;;;36.69;21.17
7768;BME280;3928;42.626;23.382;2023-08-12T12:47:11;94501.09;;;36.81;22.16
7768;BME280;3928;42.626;23.382;2023-08-12T12:49:38;94495.25;;;36.78;21.53
7768;BME280;3928;42.626;23.382;2023-08-12T12:52:07;94487.06;;;36.34;22.06
7768;BME280;3928;42.626;23.382;2023-08-12T12:54:33;94500.28;;;36.04;22.72
7768;BME280;3928;42.626;23.382;2023-08-12T12:57:00;94486.34;;;35.86;23.40
7768;BME280;3928;42.626;23.382;2023-08-12T12:59:29;94492.22;;;35.73;23.66
7768;BME280;3928;42.626;23.382;2023-08-12T13:01:56;94494.25;;;35.63;24.33
7768;BME280;3928;42.626;23.382;2023-08-12T13:04:24;94471.66;;;35.34;23.42
7768;BME280;3928;42.626;23.382;2023-08-12T13:06:51;94486.09;;;34.93;23.15
7768;BME280;3928;42.626;23.382;2023-08-12T13:09:17;94485.13;;;34.69;25.06
7768;BME280;3928;42.626;23.382;2023-08-12T13:11:44;94480.63;;;34.37;24.91